Time;durP1;ratioP1;P1;durP2;ratioP2;P2;SDS_P1;SDS_P2;PMS_P1;PMS_P2;Temp;Humidity;BMP_temperature;BMP_pressure;BME280_temperature;BME280_humidity;BME280_pressure;Samples;Min_cycle;Max_cycle;Signal;HPM_P1;HPM_P2
2020/12/07 00:01:05;;;;;;;6.65;3.83;;;13.90;69.40;;;;;;5042926;28;20028;-74
2020/12/07 00:03:36;;;;;;;8.18;3.42;;;13.90;69.40;;;;;;5034913;28;20026;-74
2020/12/07 00:06:04;;;;;;;6.63;3.22;;;13.90;69.50;;;;;;5054550;28;20035;-74
2020/12/07 00:08:30;;;;;;;5.57;3.25;;;13.90;69.50;;;;;;5053910;28;20038;-74
2020/12/07 00:11:00;;;;;;;6.03;3.10;;;13.90;69.50;;;;;;5028245;28;20394;-73
2020/12/07 00:13:26;;;;;;;5.15;3.20;;;13.90;69.40;;;;;;5050958;28;20029;-75
2020/12/07 00:15:56;;;;;;;7.88;3.38;;;13.90;69.40;;;;;;5053581;28;20025;-75
2020/12/07 00:18:22;;;;;;;5.28;3.13;;;13.90;69.40;;;;;;5063892;28;20028;-75
2020/12/07 00:20:53;;;;;;;6.00;2.67;;;13.90;69.50;;;;;;5051930;28;20036;-74
2020/12/07 00:23:29;;;;;;;5.10;3.30;;;13.90;69.40;;;;;;5064094;28;20021;-74
2020/12/07 00:25:55;;;;;;;5.32;3.10;;;13.90;69.40;;;;;;5052825;28;20074;-75
2020/12/07 00:28:20;;;;;;;4.43;2.58;;;13.90;69.40;;;;;;5043975;28;20494;-74
2020/12/07 00:31:11;;;;;;;5.07;2.78;;;13.90;69.40;;;;;;5034198;28;20446;-74
2020/12/07 00:33:37;;;;;;;5.22;3.00;;;13.90;69.40;;;;;;5048249;28;20075;-74
2020/12/07 00:36:04;;;;;;;8.95;3.30;;;13.90;69.40;;;;;;5041099;28;20468;-75
2020/12/07 00:38:30;;;;;;;8.85;3.15;;;13.80;69.40;;;;;;5041565;28;20425;-74
2020/12/07 00:41:00;;;;;;;6.82;3.38;;;13.90;69.40;;;;;;5043784;28;20036;-74
2020/12/07 00:43:26;;;;;;;4.88;2.85;;;13.90;69.40;;;;;;5040021;28;20029;-74
2020/12/07 00:45:54;;;;;;;4.47;2.92;;;13.80;69.40;;;;;;5047954;28;20033;-74
2020/12/07 00:48:28;;;;;;;;;;;13.90;69.50;;;;;;5049342;28;20029;-74
2020/12/07 00:50:56;;;;;;;3.90;3.03;;;13.90;69.40;;;;;;5040554;28;19920;-74
2020/12/07 00:53:34;;;;;;;5.25;3.45;;;13.90;69.40;;;;;;5032852;28;20032;-74
2020/12/07 00:56:00;;;;;;;8.48;3.65;;;13.90;69.40;;;;;;5044462;28;20034;-74
2020/12/07 00:58:26;;;;;;;6.05;3.15;;;13.80;69.40;;;;;;5038781;28;20211;-76
2020/12/07 01:00:52;;;;;;;3.42;2.70;;;13.90;69.40;;;;;;5027627;28;20108;-74
2020/12/07 01:03:22;;;;;;;5.05;2.70;;;13.90;69.40;;;;;;5041351;28;20063;-74
2020/12/07 01:05:56;;;;;;;5.30;3.08;;;13.90;69.40;;;;;;5052019;28;20033;-75
2020/12/07 01:08:25;;;;;;;7.45;3.22;;;13.90;69.40;;;;;;5051479;28;20122;-74
2020/12/07 01:10:57;;;;;;;7.38;3.20;;;13.80;69.40;;;;;;5033093;28;20398;-74
2020/12/07 01:13:23;;;;;;;6.22;2.90;;;13.90;69.40;;;;;;5050746;28;20031;-74
2020/12/07 01:15:54;;;;;;;4.47;2.90;;;13.90;69.40;;;;;;5053848;28;20100;-73
2020/12/07 01:18:19;;;;;;;5.93;2.83;;;13.80;69.40;;;;;;5030193;28;20033;-74
2020/12/07 01:21:00;;;;;;;4.68;2.70;;;13.90;69.40;;;;;;5046998;28;20029;-74
2020/12/07 01:23:35;;;;;;;6.28;3.90;;;13.80;69.40;;;;;;5047329;28;20164;-74
2020/12/07 01:26:03;;;;;;;4.47;3.05;;;13.90;69.40;;;;;;5034264;28;20029;-74
2020/12/07 01:28:33;;;;;;;4.68;2.92;;;13.90;69.40;;;;;;5047402;28;20132;-74
2020/12/07 01:30:59;;;;;;;4.82;2.60;;;13.90;69.40;;;;;;5049400;28;20033;-74
2020/12/07 01:33:38;;;;;;;5.38;3.45;;;13.90;69.40;;;;;;5046999;28;20447;-74
2020/12/07 01:36:10;;;;;;;4.25;2.60;;;13.90;69.40;;;;;;5031148;28;20385;-74
2020/12/07 01:38:48;;;;;;;5.65;3.10;;;13.80;69.40;;;;;;5033870;28;20113;-73
2020/12/07 01:41:18;;;;;;;4.20;2.95;;;13.90;69.40;;;;;;5048740;28;20120;-74
2020/12/07 01:43:44;;;;;;;4.25;2.88;;;13.80;69.40;;;;;;5051680;28;20036;-73
2020/12/07 01:46:13;;;;;;;3.42;2.60;;;13.80;69.40;;;;;;5033476;28;20029;-74
2020/12/07 01:48:39;;;;;;;5.32;2.63;;;13.80;69.40;;;;;;5050331;28;20028;-74
2020/12/07 01:51:07;;;;;;;4.18;2.80;;;13.90;69.40;;;;;;5050679;28;20986;-74
2020/12/07 01:53:45;;;;;;;4.82;2.47;;;13.80;69.30;;;;;;5051839;28;20040;-74
2020/12/07 01:56:26;;;;;;;;;;;13.80;69.30;;;;;;5051638;28;20029;-74
2020/12/07 01:58:51;;;;;;;5.97;3.22;;;13.90;69.30;;;;;;5036610;28;19909;-74
2020/12/07 02:01:18;;;;;;;6.47;2.63;;;13.80;69.30;;;;;;5053424;28;20429;-74
2020/12/07 02:03:44;;;;;;;5.82;2.67;;;13.90;69.30;;;;;;5051913;28;20028;-74
2020/12/07 02:06:09;;;;;;;4.10;3.00;;;13.90;69.40;;;;;;5032042;28;20025;-75
2020/12/07 02:08:35;;;;;;;4.70;2.40;;;13.80;69.30;;;;;;5049288;28;20030;-75
2020/12/07 02:11:02;;;;;;;5.10;2.78;;;13.90;69.30;;;;;;5039661;28;20030;-74
2020/12/07 02:13:29;;;;;;;5.80;3.10;;;13.90;69.30;;;;;;5049784;28;20502;-74
2020/12/07 02:15:55;;;;;;;4.72;2.70;;;13.90;69.30;;;;;;5035981;28;20029;-73
2020/12/07 02:18:35;;;;;;;5.00;3.00;;;13.90;69.30;;;;;;5053113;28;20462;-73
2020/12/07 02:21:00;;;;;;;4.00;2.53;;;13.80;69.30;;;;;;5049970;28;20284;-73
2020/12/07 02:23:35;;;;;;;3.33;2.22;;;13.90;69.30;;;;;;5042859;28;20021;-74
2020/12/07 02:26:01;;;;;;;4.80;2.80;;;13.90;69.30;;;;;;5060033;28;20047;-73
2020/12/07 02:28:33;;;;;;;3.97;2.97;;;13.80;69.30;;;;;;5054355;28;20510;-73
2020/12/07 02:31:04;;;;;;;3.33;2.30;;;13.80;69.30;;;;;;5044714;28;20090;-73
2020/12/07 02:33:34;;;;;;;5.13;2.70;;;13.90;69.30;;;;;;5040664;28;20025;-74
2020/12/07 02:36:00;;;;;;;4.32;2.58;;;13.90;69.30;;;;;;5060455;28;20032;-74
2020/12/07 02:38:31;;;;;;;3.45;2.53;;;13.80;69.30;;;;;;5048462;28;20033;-73
2020/12/07 02:41:00;;;;;;;5.22;2.63;;;13.80;69.30;;;;;;5054340;28;20021;-74
2020/12/07 02:43:34;;;;;;;4.22;2.95;;;13.90;69.30;;;;;;5054523;28;20033;-74
2020/12/07 02:46:06;;;;;;;4.97;2.42;;;13.90;69.30;;;;;;5049358;28;20045;-73
2020/12/07 02:48:32;;;;;;;4.95;2.80;;;13.90;69.30;;;;;;5052918;28;20029;-74
2020/12/07 02:50:58;;;;;;;3.33;2.38;;;13.90;69.30;;;;;;5052289;28;20027;-74
2020/12/07 02:53:32;;;;;;;4.25;2.72;;;13.80;69.30;;;;;;5052906;28;20033;-73
2020/12/07 02:55:58;;;;;;;5.07;2.60;;;13.90;69.30;;;;;;5047100;28;20065;-73
2020/12/07 02:58:30;;;;;;;3.05;2.33;;;13.90;69.30;;;;;;5053640;28;20049;-74
2020/12/07 03:00:55;;;;;;;3.45;2.30;;;13.90;69.30;;;;;;5052827;28;20514;-73
2020/12/07 03:03:56;;;;;;;5.38;3.10;;;13.80;69.30;;;;;;5049109;28;20108;-73
2020/12/07 03:06:27;;;;;;;3.70;2.47;;;13.80;69.30;;;;;;5053122;28;20112;-74
2020/12/07 03:09:07;;;;;;;3.58;2.30;;;13.80;69.30;;;;;;5050841;28;20021;-74
2020/12/07 03:11:48;;;;;;;3.53;2.40;;;13.80;69.30;;;;;;5053690;28;20103;-74
2020/12/07 03:14:14;;;;;;;3.45;2.22;;;13.80;69.30;;;;;;5048881;28;20534;-73
2020/12/07 03:16:39;;;;;;;4.35;2.65;;;13.80;69.30;;;;;;5053221;28;20100;-73
2020/12/07 03:19:11;;;;;;;4.85;2.88;;;13.80;69.20;;;;;;5036109;28;20082;-74
2020/12/07 03:21:38;;;;;;;4.32;2.40;;;13.80;69.20;;;;;;5038139;28;20485;-78
2020/12/07 03:24:07;;;;;;;3.38;2.30;;;13.90;69.30;;;;;;5033977;28;20045;-73
2020/12/07 03:26:40;;;;;;;3.78;2.80;;;13.90;69.30;;;;;;5053770;28;20082;-73
2020/12/07 03:29:10;;;;;;;4.10;2.53;;;13.80;69.30;;;;;;5053737;28;20033;-74
2020/12/07 03:31:40;;;;;;;3.63;2.38;;;13.80;69.30;;;;;;5052989;28;20037;-73
2020/12/07 03:34:12;;;;;;;3.08;2.33;;;13.80;69.30;;;;;;5035933;28;20056;-74
2020/12/07 03:36:43;;;;;;;4.00;2.30;;;13.80;69.30;;;;;;5048641;28;20031;-74
2020/12/07 03:39:16;;;;;;;3.17;2.00;;;13.80;69.20;;;;;;5044212;28;20039;-74
2020/12/07 03:41:42;;;;;;;4.60;2.85;;;13.90;69.30;;;;;;5051775;28;20087;-74
2020/12/07 03:44:13;;;;;;;3.70;2.67;;;13.90;69.30;;;;;;5054085;28;20029;-73
2020/12/07 03:46:39;;;;;;;3.38;2.42;;;13.80;69.30;;;;;;5049380;28;20033;-73
2020/12/07 03:49:06;;;;;;;3.38;2.08;;;13.80;69.20;;;;;;5052993;28;20060;-75
2020/12/07 03:51:36;;;;;;;4.25;2.13;;;13.90;69.20;;;;;;5052953;28;20532;-74
2020/12/07 03:54:04;;;;;;;3.35;2.42;;;13.90;69.20;;;;;;5048683;28;20040;-74
2020/12/07 03:56:31;;;;;;;4.45;2.40;;;13.80;69.20;;;;;;5049361;28;20076;-74
2020/12/07 03:59:00;;;;;;;3.40;2.30;;;13.90;69.30;;;;;;5033146;28;20040;-73
2020/12/07 04:01:36;;;;;;;3.55;2.40;;;13.90;69.20;;;;;;5051912;28;20025;-77
2020/12/07 04:04:03;;;;;;;3.95;2.63;;;13.80;69.30;;;;;;5052220;28;20025;-73
2020/12/07 04:06:39;;;;;;;4.63;2.38;;;13.80;69.30;;;;;;5036943;28;20078;-73
2020/12/07 04:09:11;;;;;;;3.70;2.10;;;13.80;69.30;;;;;;5047702;28;20118;-74
2020/12/07 04:11:40;;;;;;;3.67;2.60;;;13.80;69.30;;;;;;5034541;28;20064;-74
2020/12/07 04:14:06;;;;;;;3.55;2.35;;;13.80;69.30;;;;;;5051067;28;20206;-74
2020/12/07 04:16:38;;;;;;;4.45;2.47;;;13.80;69.30;;;;;;5035099;28;20126;-73
2020/12/07 04:19:08;;;;;;;2.85;2.30;;;13.80;69.30;;;;;;5053016;28;20031;-73
2020/12/07 04:21:46;;;;;;;3.85;2.05;;;13.80;69.30;;;;;;5048889;28;20199;-74
2020/12/07 04:24:24;;;;;;;4.60;2.42;;;13.80;69.30;;;;;;5051162;28;20151;-74
2020/12/07 04:26:49;;;;;;;4.70;2.42;;;13.80;69.30;;;;;;5026470;28;20037;-76
2020/12/07 04:29:19;;;;;;;4.63;2.53;;;13.80;69.30;;;;;;5045103;28;20451;-73
2020/12/07 04:31:52;;;;;;;3.97;2.40;;;13.80;69.30;;;;;;5047589;28;21836;-73
2020/12/07 04:34:17;;;;;;;4.30;2.40;;;13.80;69.20;;;;;;5033086;28;20025;-74
2020/12/07 04:36:51;;;;;;;4.18;2.30;;;13.80;69.30;;;;;;5053761;28;20037;-74
2020/12/07 04:39:16;;;;;;;4.25;2.45;;;13.80;69.30;;;;;;5050751;28;20033;-74
2020/12/07 04:42:26;;;;;;;;;;;;;;;;;;;;;
2020/12/07 04:44:49;;;;;;;4.30;3.25;;;13.80;69.30;;;;;;5050568;28;20029;-75
2020/12/07 04:47:19;;;;;;;3.20;2.13;;;13.80;69.30;;;;;;5057459;28;20074;-74
2020/12/07 04:49:51;;;;;;;4.85;2.13;;;13.80;69.30;;;;;;5051074;28;20123;-73
2020/12/07 04:52:24;;;;;;;4.65;2.50;;;13.80;69.30;;;;;;5049048;28;20104;-75
2020/12/07 04:54:52;;;;;;;5.60;2.20;;;13.80;69.30;;;;;;5028613;28;20129;-75
2020/12/07 04:57:19;;;;;;;3.28;2.13;;;13.80;69.30;;;;;;5049528;28;20025;-76
2020/12/07 04:59:51;;;;;;;4.57;2.70;;;13.80;69.30;;;;;;5033971;28;20033;-74
2020/12/07 05:02:30;;;;;;;3.38;2.30;;;13.80;69.30;;;;;;5034512;28;20278;-74
2020/12/07 05:05:00;;;;;;;2.75;2.10;;;13.80;69.30;;;;;;5052860;28;20025;-74
2020/12/07 05:07:35;;;;;;;3.88;2.17;;;13.80;69.30;;;;;;5059529;28;20025;-74
2020/12/07 05:10:23;;;;;;;4.18;2.47;;;13.80;69.30;;;;;;5047635;28;20159;-75
2020/12/07 05:13:03;;;;;;;;;;;13.80;69.30;;;;;;5053123;28;20044;-74
2020/12/07 05:15:41;;;;;;;3.63;2.15;;;13.80;69.30;;;;;;5052388;28;20365;-74
2020/12/07 05:18:11;;;;;;;5.72;2.40;;;13.80;69.30;;;;;;5038763;28;20116;-74
2020/12/07 05:20:37;;;;;;;2.45;1.92;;;13.80;69.30;;;;;;5033260;28;20113;-74
2020/12/07 05:23:04;;;;;;;4.15;2.40;;;13.80;69.30;;;;;;5043356;28;20105;-74
2020/12/07 05:25:31;;;;;;;3.83;2.50;;;13.80;69.30;;;;;;5014914;28;20053;-74
2020/12/07 05:28:05;;;;;;;2.85;2.10;;;13.80;69.30;;;;;;5031998;28;20029;-74
2020/12/07 05:30:34;;;;;;;3.67;2.90;;;13.80;69.30;;;;;;5025704;28;20045;-74
2020/12/07 05:33:00;;;;;;;3.03;2.08;;;13.80;69.30;;;;;;5033958;28;20033;-74
2020/12/07 05:35:51;;;;;;;3.53;2.60;;;13.80;69.30;;;;;;5029959;28;20025;-74
2020/12/07 05:38:30;;;;;;;2.58;2.10;;;13.80;69.30;;;;;;5033421;28;20036;-74
2020/12/07 05:41:01;;;;;;;2.45;2.10;;;13.80;69.30;;;;;;5035418;28;20034;-76
2020/12/07 05:43:31;;;;;;;3.30;2.15;;;13.80;69.30;;;;;;5027638;28;20053;-74
2020/12/07 05:45:59;;;;;;;2.58;2.20;;;13.80;69.30;;;;;;5033478;28;20029;-74
2020/12/07 05:48:30;;;;;;;3.05;1.75;;;13.80;69.30;;;;;;5034765;28;20092;-74
2020/12/07 05:51:02;;;;;;;2.75;2.03;;;13.80;69.30;;;;;;5034771;28;20069;-75
2020/12/07 05:53:28;;;;;;;2.75;2.25;;;13.80;69.30;;;;;;5026066;28;20048;-74
2020/12/07 05:55:54;;;;;;;2.63;2.00;;;13.80;69.30;;;;;;5034817;28;20480;-74
2020/12/07 05:58:44;;;;;;;2.67;1.73;;;13.80;69.30;;;;;;5032750;28;20037;-74
2020/12/07 06:01:10;;;;;;;3.05;2.00;;;13.80;69.30;;;;;;5027509;28;20033;-74
2020/12/07 06:03:41;;;;;;;2.63;1.83;;;13.80;69.30;;;;;;5035316;28;20026;-74
2020/12/07 06:06:06;;;;;;;3.50;2.05;;;13.80;69.30;;;;;;5030765;28;20048;-74
2020/12/07 06:08:34;;;;;;;2.30;1.92;;;13.80;69.30;;;;;;5019737;28;20652;-74
2020/12/07 06:11:11;;;;;;;2.63;1.95;;;13.80;69.30;;;;;;5031488;28;20035;-74
2020/12/07 06:13:42;;;;;;;2.42;1.85;;;13.80;69.30;;;;;;5034623;28;20034;-74
2020/12/07 06:16:07;;;;;;;3.53;2.05;;;13.80;69.30;;;;;;5035301;28;20025;-74
2020/12/07 06:18:35;;;;;;;2.95;1.98;;;13.80;69.30;;;;;;5035269;28;20044;-74
2020/12/07 06:21:09;;;;;;;2.28;1.70;;;13.80;69.30;;;;;;5035400;28;20029;-74
2020/12/07 06:23:42;;;;;;;2.47;2.15;;;13.80;69.30;;;;;;5022163;28;20055;-74
2020/12/07 06:26:10;;;;;;;2.92;2.17;;;13.80;69.30;;;;;;5035504;28;20104;-74
2020/12/07 06:28:41;;;;;;;2.47;1.95;;;13.80;69.30;;;;;;5050593;28;20045;-73
2020/12/07 06:31:13;;;;;;;3.40;1.92;;;13.80;69.30;;;;;;5034742;28;20437;-74
2020/12/07 06:33:50;;;;;;;3.88;2.20;;;13.80;69.30;;;;;;5033339;28;20349;-74
2020/12/07 06:36:34;;;;;;;3.33;2.00;;;13.80;69.30;;;;;;5048799;28;20022;-76
2020/12/07 06:39:07;;;;;;;4.22;1.92;;;13.80;69.30;;;;;;5016796;28;20080;-75
2020/12/07 06:41:38;;;;;;;2.90;2.13;;;13.80;69.30;;;;;;5033544;28;20041;-74
2020/12/07 06:44:12;;;;;;;2.80;1.85;;;13.80;69.30;;;;;;5048999;28;20036;-74
2020/12/07 06:46:52;;;;;;;3.67;1.73;;;13.80;69.30;;;;;;5045049;28;20025;-74
2020/12/07 06:49:18;;;;;;;3.70;2.10;;;13.80;69.30;;;;;;5035688;28;20029;-74
2020/12/07 06:51:47;;;;;;;3.83;2.55;;;13.80;69.30;;;;;;5041758;28;20026;-74
2020/12/07 06:55:20;;;;;;;2.90;2.25;;;13.80;69.30;;;;;;5035700;28;20360;-74
2020/12/07 06:57:25;;;;;;;1.90;1.70;;;13.80;69.30;;;;;;5010034;28;20034;-74
2020/12/07 07:00:04;;;;;;;2.85;1.80;;;13.80;69.30;;;;;;5033077;28;20119;-74
2020/12/07 07:02:30;;;;;;;3.17;1.90;;;13.80;69.30;;;;;;5040066;28;20448;-74
2020/12/07 07:05:00;;;;;;;2.40;1.90;;;13.80;69.30;;;;;;5044175;28;20059;-74
2020/12/07 07:07:30;;;;;;;3.45;2.35;;;13.80;69.30;;;;;;5049823;28;20022;-74
2020/12/07 07:09:56;;;;;;;2.72;2.00;;;13.80;69.20;;;;;;5030074;28;20038;-75
2020/12/07 07:12:27;;;;;;;2.63;2.00;;;13.80;69.20;;;;;;5037616;28;20360;-73
2020/12/07 07:14:55;;;;;;;1.90;1.70;;;13.80;69.20;;;;;;5054044;28;20044;-74
2020/12/07 07:17:28;;;;;;;4.25;1.88;;;13.80;69.20;;;;;;5037549;28;20040;-74
2020/12/07 07:19:53;;;;;;;2.95;1.70;;;13.80;69.20;;;;;;5040883;28;20060;-76
2020/12/07 07:22:20;;;;;;;2.33;1.80;;;13.80;69.20;;;;;;5055456;28;20064;-74
2020/12/07 07:30:04;;;;;;;2.78;1.92;;;13.80;69.20;;;;;;5041051;28;20051;-77
2020/12/07 07:32:31;;;;;;;2.33;1.75;;;13.80;69.20;;;;;;5030816;28;20047;-74
2020/12/07 07:34:56;;;;;;;2.55;2.05;;;13.90;69.10;;;;;;5059886;28;20024;-74
2020/12/07 07:37:22;;;;;;;2.47;1.95;;;13.80;69.10;;;;;;5066733;28;20083;-74
2020/12/07 07:40:13;;;;;;;2.53;1.90;;;13.80;69.10;;;;;;5036887;28;20057;-74
2020/12/07 07:42:53;;;;;;;4.60;2.03;;;13.80;69.10;;;;;;5030041;28;20020;-74
2020/12/07 07:45:22;;;;;;;2.15;1.80;;;13.90;69.10;;;;;;5051522;28;20082;-74
2020/12/07 07:48:03;;;;;;;3.08;1.73;;;13.90;69.10;;;;;;5032722;28;20421;-75
2020/12/07 08:16:56;;;;;;;2.75;1.92;;;13.90;68.90;;;;;;5045602;28;20386;-75
2020/12/07 08:19:22;;;;;;;3.65;2.22;;;13.90;68.90;;;;;;5053040;28;20032;-75
2020/12/07 08:21:48;;;;;;;3.10;1.80;;;13.90;68.90;;;;;;5030830;28;20029;-74
2020/12/07 08:24:14;;;;;;;2.50;1.70;;;13.90;68.90;;;;;;5051177;28;20053;-75
2020/12/07 08:26:43;;;;;;;1.90;1.50;;;13.90;68.90;;;;;;5051401;28;20139;-79
2020/12/07 08:29:10;;;;;;;2.63;2.00;;;13.90;68.90;;;;;;5049025;28;20561;-75
2020/12/07 08:31:37;;;;;;;2.17;1.58;;;13.90;68.90;;;;;;5049067;28;20089;-75
2020/12/07 08:34:14;;;;;;;3.13;2.10;;;13.90;68.90;;;;;;5032907;28;20040;-74
2020/12/07 08:36:45;;;;;;;3.42;1.70;;;13.90;68.90;;;;;;5046720;28;20025;-75
2020/12/07 08:39:12;;;;;;;2.75;1.77;;;13.90;68.90;;;;;;5046773;28;20112;-75
2020/12/07 08:41:38;;;;;;;2.72;1.77;;;13.90;68.90;;;;;;5050380;28;20032;-74
2020/12/07 08:44:06;;;;;;;1.92;1.70;;;13.90;68.80;;;;;;5049455;28;20036;-73
2020/12/07 08:46:33;;;;;;;1.92;1.55;;;13.90;68.80;;;;;;5050089;28;20470;-76
2020/12/07 08:49:04;;;;;;;2.20;1.63;;;13.90;68.80;;;;;;5034181;28;20037;-77
2020/12/07 08:51:32;;;;;;;2.15;1.77;;;13.90;68.80;;;;;;5044445;28;20029;-76
2020/12/07 08:53:58;;;;;;;2.58;1.90;;;13.90;68.80;;;;;;5031480;28;20031;-75
2020/12/07 08:56:25;;;;;;;2.45;1.98;;;13.90;68.80;;;;;;5048908;28;20040;-75
2020/12/07 08:58:50;;;;;;;2.28;1.85;;;14.00;68.80;;;;;;5032259;28;20041;-79
2020/12/07 09:01:16;;;;;;;1.92;1.70;;;14.00;68.80;;;;;;5051357;28;20040;-75
2020/12/07 09:03:43;;;;;;;2.22;1.70;;;14.00;68.80;;;;;;5027886;28;20471;-76
2020/12/07 09:06:11;;;;;;;2.15;1.63;;;14.00;68.80;;;;;;5049090;28;20087;-76
2020/12/07 09:08:37;;;;;;;3.53;1.98;;;13.90;68.70;;;;;;5053981;28;20051;-75
2020/12/07 09:11:07;;;;;;;3.78;2.25;;;13.90;68.80;;;;;;5053480;28;20433;-74
2020/12/07 09:13:34;;;;;;;2.78;2.20;;;14.00;68.80;;;;;;5036278;28;20053;-74
2020/12/07 09:16:00;;;;;;;2.40;1.63;;;14.00;68.70;;;;;;5035219;28;20029;-75
2020/12/07 09:18:27;;;;;;;4.85;1.75;;;13.90;68.70;;;;;;5054440;28;20079;-75
2020/12/07 09:20:52;;;;;;;1.95;1.55;;;14.00;68.80;;;;;;5051098;28;20027;-75
2020/12/07 09:23:19;;;;;;;2.35;1.77;;;14.00;68.70;;;;;;5061547;28;20032;-73
2020/12/07 09:25:50;;;;;;;2.25;1.55;;;14.00;68.70;;;;;;5059070;28;20541;-75
2020/12/07 09:28:19;;;;;;;2.65;1.42;;;14.00;68.70;;;;;;5055407;28;20047;-73
2020/12/07 09:30:45;;;;;;;2.67;1.58;;;14.00;68.70;;;;;;5051912;28;20043;-76
2020/12/07 09:33:11;;;;;;;2.28;1.65;;;14.00;68.70;;;;;;5053703;28;20033;-74
2020/12/07 09:35:41;;;;;;;1.85;1.45;;;14.00;68.70;;;;;;5034476;28;20056;-75
2020/12/07 09:38:07;;;;;;;1.92;1.70;;;14.00;68.70;;;;;;5038487;28;20040;-76
2020/12/07 09:40:36;;;;;;;1.60;1.38;;;14.00;68.70;;;;;;5052683;28;20025;-73
2020/12/07 09:43:02;;;;;;;2.00;1.70;;;14.00;68.60;;;;;;5047284;28;20037;-73
2020/12/07 09:45:29;;;;;;;1.90;1.50;;;14.00;68.60;;;;;;5050982;28;20096;-72
2020/12/07 09:47:57;;;;;;;2.33;1.63;;;14.10;68.60;;;;;;5046467;28;20029;-70
2020/12/07 09:50:23;;;;;;;2.75;1.88;;;14.00;68.60;;;;;;5045311;28;20124;-74
2020/12/07 09:52:53;;;;;;;3.22;1.88;;;14.00;68.60;;;;;;5036106;28;20101;-74
2020/12/07 09:55:24;;;;;;;2.85;1.60;;;14.00;68.50;;;;;;5038185;28;20470;-73
2020/12/07 09:57:50;;;;;;;1.90;1.58;;;14.00;68.50;;;;;;5030693;28;20033;-75
2020/12/07 10:00:16;;;;;;;1.98;1.75;;;14.10;68.50;;;;;;5041765;28;20039;-75
2020/12/07 10:02:42;;;;;;;1.50;1.40;;;14.00;68.50;;;;;;5030995;28;20100;-75
2020/12/07 10:05:07;;;;;;;2.35;1.48;;;14.00;68.50;;;;;;5052008;28;20029;-74
2020/12/07 10:07:33;;;;;;;2.03;1.70;;;14.00;68.40;;;;;;5047726;28;20053;-74
2020/12/07 10:09:59;;;;;;;2.40;1.45;;;14.10;68.40;;;;;;5049438;28;20040;-74
2020/12/07 10:12:25;;;;;;;2.40;1.63;;;14.10;68.40;;;;;;5050878;28;20025;-72
2020/12/07 10:14:50;;;;;;;2.10;1.60;;;14.10;68.30;;;;;;5031888;28;20498;-77
2020/12/07 10:17:16;;;;;;;2.80;1.77;;;14.10;68.30;;;;;;5057590;28;20021;-75
2020/12/07 10:19:44;;;;;;;2.83;1.67;;;14.20;68.20;;;;;;5052846;28;20068;-76
2020/12/07 10:22:10;;;;;;;1.65;1.52;;;14.20;68.10;;;;;;5050846;28;20033;-75
2020/12/07 10:24:35;;;;;;;2.28;1.75;;;14.20;68.10;;;;;;5053204;28;20041;-76
2020/12/07 10:27:01;;;;;;;2.70;1.58;;;14.20;68.00;;;;;;5053777;28;20104;-76
2020/12/07 10:29:27;;;;;;;1.83;1.48;;;14.20;68.00;;;;;;5044781;28;20040;-76
2020/12/07 10:31:54;;;;;;;2.25;1.45;;;14.20;67.90;;;;;;5036128;28;20029;-76
2020/12/07 10:34:19;;;;;;;2.35;1.70;;;14.20;67.90;;;;;;5052557;28;20036;-75
2020/12/07 10:36:50;;;;;;;2.40;1.63;;;14.20;67.90;;;;;;5041251;28;20371;-76
2020/12/07 10:39:16;;;;;;;2.00;1.52;;;14.20;67.80;;;;;;5048123;28;20036;-77
2020/12/07 10:41:41;;;;;;;4.95;1.77;;;14.30;67.80;;;;;;5051104;28;20026;-75
2020/12/07 10:44:08;;;;;;;2.78;1.42;;;14.30;67.80;;;;;;5053286;28;20032;-76
2020/12/07 10:46:37;;;;;;;1.98;1.50;;;14.20;67.80;;;;;;5035164;28;20021;-75
2020/12/07 10:49:06;;;;;;;3.15;1.55;;;14.20;67.80;;;;;;5050954;28;20033;-77
2020/12/07 10:51:32;;;;;;;2.92;1.80;;;14.20;67.90;;;;;;5036096;28;20052;-75
2020/12/07 10:54:00;;;;;;;2.40;1.65;;;14.20;67.90;;;;;;5051185;28;20386;-75
2020/12/07 10:56:26;;;;;;;1.77;1.50;;;14.20;68.00;;;;;;5047037;28;20021;-75
2020/12/07 10:58:51;;;;;;;1.63;1.40;;;14.20;68.00;;;;;;5032186;28;20083;-73
2020/12/07 11:01:17;;;;;;;2.40;1.63;;;14.20;68.00;;;;;;5043508;28;20033;-74
2020/12/07 11:03:43;;;;;;;2.80;1.73;;;14.20;68.00;;;;;;5034289;28;20029;-76
2020/12/07 11:06:19;;;;;;;1.83;1.50;;;14.20;68.00;;;;;;5052871;28;20476;-74
2020/12/07 11:08:58;;;;;;;1.60;1.50;;;14.20;68.00;;;;;;5035524;28;20048;-74
2020/12/07 11:11:24;;;;;;;1.90;1.70;;;14.20;68.00;;;;;;5047283;28;20057;-73
2020/12/07 11:13:50;;;;;;;2.08;1.70;;;14.20;67.90;;;;;;5052575;28;20029;-74
2020/12/07 11:16:22;;;;;;;1.70;1.55;;;14.20;67.90;;;;;;5038079;28;20033;-74
2020/12/07 11:18:47;;;;;;;1.85;1.50;;;14.20;67.90;;;;;;5048600;28;20034;-74
2020/12/07 11:21:16;;;;;;;3.47;1.75;;;14.20;67.90;;;;;;5055024;28;20033;-74
2020/12/07 11:23:44;;;;;;;2.42;1.95;;;14.20;67.90;;;;;;5049706;28;20132;-74
2020/12/07 11:26:10;;;;;;;1.67;1.40;;;14.20;68.00;;;;;;5046318;28;20450;-74
2020/12/07 11:28:38;;;;;;;1.55;1.40;;;14.20;67.90;;;;;;5048927;28;20040;-74
2020/12/07 11:31:04;;;;;;;4.67;1.60;;;14.20;67.90;;;;;;5051412;28;20025;-73
2020/12/07 11:33:31;;;;;;;1.88;1.67;;;14.20;67.90;;;;;;5034290;28;20283;-74
2020/12/07 11:35:57;;;;;;;2.45;1.80;;;14.20;67.90;;;;;;5029908;28;20427;-75
2020/12/07 11:38:25;;;;;;;2.63;1.80;;;14.20;67.90;;;;;;5032883;28;20025;-74
2020/12/07 11:46:08;;;;;;;2.40;1.92;;;14.20;68.00;;;;;;5051777;28;20074;-74
2020/12/07 11:48:33;;;;;;;2.20;1.80;;;14.20;68.00;;;;;;5048874;28;20459;-74
2020/12/07 11:50:59;;;;;;;3.53;2.03;;;14.20;67.90;;;;;;5034311;28;20415;-78
2020/12/07 11:53:25;;;;;;;2.35;1.88;;;14.20;68.00;;;;;;5047415;28;20033;-75
2020/12/07 11:55:50;;;;;;;2.65;1.70;;;14.20;68.00;;;;;;5029703;28;20080;-74
2020/12/07 11:58:16;;;;;;;2.35;1.83;;;14.20;67.90;;;;;;5040444;28;20035;-74
2020/12/07 12:00:42;;;;;;;2.75;2.28;;;14.20;67.90;;;;;;5051530;28;20040;-74
2020/12/07 12:03:07;;;;;;;2.85;2.10;;;14.20;67.90;;;;;;5052649;28;20068;-74
2020/12/07 12:05:33;;;;;;;2.55;1.83;;;14.20;67.90;;;;;;5048084;28;20056;-74
2020/12/07 12:07:59;;;;;;;2.47;1.73;;;14.20;67.90;;;;;;5032638;28;20036;-73
2020/12/07 12:10:24;;;;;;;3.72;2.10;;;14.20;67.90;;;;;;5049962;28;20025;-74
2020/12/07 12:12:50;;;;;;;3.53;2.30;;;14.20;67.80;;;;;;5052029;28;20099;-75
2020/12/07 12:15:15;;;;;;;2.60;1.80;;;14.20;67.80;;;;;;5051250;28;20029;-75
2020/12/07 12:17:41;;;;;;;2.50;1.90;;;14.20;67.80;;;;;;5048358;28;20385;-74
2020/12/07 12:20:07;;;;;;;2.92;1.95;;;14.30;67.70;;;;;;5051503;28;20025;-75
2020/12/07 12:22:32;;;;;;;4.00;2.00;;;14.30;67.70;;;;;;5049395;28;20033;-75
2020/12/07 12:24:58;;;;;;;2.53;2.10;;;14.30;67.70;;;;;;5049232;28;20060;-74
2020/12/07 12:27:24;;;;;;;2.97;1.85;;;14.20;67.70;;;;;;5048419;28;20072;-75
2020/12/07 12:29:49;;;;;;;2.63;1.90;;;14.30;67.70;;;;;;5043483;28;20041;-75
2020/12/07 12:32:15;;;;;;;4.15;2.22;;;14.30;67.70;;;;;;5047649;28;20032;-75
2020/12/07 12:34:42;;;;;;;3.00;2.15;;;14.30;67.70;;;;;;5030210;28;20471;-73
2020/12/07 12:37:07;;;;;;;4.00;2.40;;;14.30;67.70;;;;;;5041832;28;20034;-72
2020/12/07 12:39:35;;;;;;;3.15;2.40;;;14.30;67.70;;;;;;5023801;28;20087;-73
2020/12/07 12:42:01;;;;;;;3.22;2.25;;;14.30;67.80;;;;;;5043772;28;20118;-72
2020/12/07 12:44:27;;;;;;;3.80;2.67;;;14.30;67.80;;;;;;5052095;28;21633;-72
2020/12/07 12:46:52;;;;;;;4.20;2.47;;;14.20;67.80;;;;;;5047787;28;20025;-73
2020/12/07 12:49:20;;;;;;;4.28;2.55;;;14.30;67.80;;;;;;5047693;28;20390;-73
2020/12/07 12:51:47;;;;;;;3.17;2.22;;;14.20;67.70;;;;;;5047136;28;20025;-73
2020/12/07 12:54:13;;;;;;;2.90;2.40;;;14.30;67.80;;;;;;5018015;28;20427;-76
2020/12/07 12:56:39;;;;;;;3.22;2.42;;;14.30;67.70;;;;;;5029240;28;20029;-72
2020/12/07 12:59:04;;;;;;;4.78;2.90;;;14.30;67.70;;;;;;5031054;28;20036;-77
2020/12/07 13:01:35;;;;;;;3.72;2.42;;;14.30;67.60;;;;;;5032735;28;20037;-73
2020/12/07 13:04:01;;;;;;;3.88;2.70;;;14.30;67.70;;;;;;5033911;28;20033;-73
2020/12/07 13:06:35;;;;;;;3.33;2.45;;;14.30;67.70;;;;;;5033829;28;20116;-72
2020/12/07 13:09:03;;;;;;;5.93;2.80;;;14.30;67.70;;;;;;5051349;28;20465;-72
2020/12/07 13:11:35;;;;;;;3.88;2.65;;;14.30;67.70;;;;;;5032193;28;20470;-72
2020/12/07 13:14:01;;;;;;;3.75;2.67;;;14.30;67.70;;;;;;5052705;28;20079;-72
2020/12/07 13:16:35;;;;;;;3.78;2.63;;;14.30;67.70;;;;;;5051490;28;20450;-72
2020/12/07 13:19:00;;;;;;;4.40;2.70;;;14.30;67.80;;;;;;5050162;28;20673;-73
2020/12/07 13:21:35;;;;;;;2.88;2.25;;;14.20;67.80;;;;;;5047096;28;20079;-76
2020/12/07 13:26:45;;;;;;;3.47;2.60;;;14.20;67.90;;;;;;5050277;28;20116;-72
2020/12/07 13:29:19;;;;;;;4.13;2.63;;;14.20;67.90;;;;;;5027873;28;20121;-73
2020/12/07 13:31:49;;;;;;;5.10;3.25;;;14.20;67.90;;;;;;5051422;28;20099;-72
2020/12/07 13:34:19;;;;;;;4.03;2.67;;;14.20;67.90;;;;;;5048898;28;20017;-72
2020/12/07 13:36:45;;;;;;;4.20;2.67;;;14.20;68.00;;;;;;5049359;28;20071;-73
2020/12/07 13:39:12;;;;;;;4.68;3.00;;;14.20;68.00;;;;;;5049292;28;20033;-73